Time;durP1;ratioP1;P1;durP2;ratioP2;P2;SDS_P1;SDS_P2;PMS_P1;PMS_P2;Temp;Humidity;BMP_temperature;BMP_pressure;BME280_temperature;BME280_humidity;BME280_pressure;Samples;Min_cycle;Max_cycle;Signal;HPM_P1;HPM_P2
2021/12/18 00:00:27;;;;;;;15.93;9.40;;;;;;;;;;7400208;19;19995;-72
2021/12/18 00:02:53;;;;;;;14.57;7.82;;;;;;;;;;7399455;19;20002;-71
2021/12/18 00:05:18;;;;;;;13.93;8.10;;;;;;;;;;7400916;19;20006;-71
2021/12/18 00:07:43;;;;;;;23.83;8.20;;;;;;;;;;7400423;19;20006;-71
2021/12/18 00:10:09;;;;;;;14.05;7.75;;;;;;;;;;7399331;19;19987;-71
2021/12/18 00:12:34;;;;;;;14.43;7.90;;;;;;;;;;7398984;19;20047;-71
2021/12/18 00:15:00;;;;;;;15.23;7.93;;;;;;;;;;7402758;19;20076;-72
2021/12/18 00:17:25;;;;;;;15.98;8.13;;;;;;;;;;7400613;19;20007;-71
2021/12/18 00:19:50;;;;;;;11.35;7.55;;;;;;;;;;7399773;19;20001;-72
2021/12/18 00:22:17;;;;;;;13.30;7.22;;;;;;;;;;7399488;19;19999;-71
2021/12/18 00:24:42;;;;;;;13.90;8.98;;;;;;;;;;7403778;19;20054;-72
2021/12/18 00:27:07;;;;;;;13.43;7.97;;;;;;;;;;7400875;19;19995;-71
2021/12/18 00:29:33;;;;;;;12.85;7.10;;;;;;;;;;7397066;19;20011;-71
2021/12/18 00:31:58;;;;;;;11.65;7.53;;;;;;;;;;7399247;19;19998;-72
2021/12/18 00:34:23;;;;;;;13.20;7.95;;;;;;;;;;7399774;19;19999;-71
2021/12/18 00:36:50;;;;;;;13.10;7.93;;;;;;;;;;7399819;19;19998;-72
2021/12/18 00:39:16;;;;;;;13.57;7.97;;;;;;;;;;7398356;19;20489;-71
2021/12/18 00:44:25;;;;;;;11.07;7.50;;;;;;;;;;7395222;19;20001;-72
2021/12/18 00:46:51;;;;;;;12.63;7.60;;;;;;;;;;7392774;19;19999;-72
2021/12/18 00:49:18;;;;;;;15.88;8.13;;;;;;;;;;7390212;19;20020;-71
2021/12/18 00:51:44;;;;;;;14.00;7.47;;;;;;;;;;7391860;19;19998;-72
2021/12/18 00:54:10;;;;;;;15.50;8.60;;;;;;;;;;7391862;19;19999;-71
2021/12/18 00:56:35;;;;;;;13.50;7.93;;;;;;;;;;7392277;19;20019;-71
2021/12/18 00:59:01;;;;;;;12.35;7.72;;;;;;;;;;7391682;19;19998;-71
2021/12/18 01:01:28;;;;;;;10.73;6.95;;;;;;;;;;7390537;19;20326;-71
2021/12/18 01:03:55;;;;;;;11.95;7.60;;;;;;;;;;7391895;19;19995;-71
2021/12/18 01:06:22;;;;;;;10.95;6.60;;;;;;;;;;7392109;19;19997;-71
2021/12/18 01:08:53;;;;;;;10.43;7.05;;;;;;;;;;7388830;19;20487;-71
2021/12/18 01:14:03;;;;;;;12.48;7.70;;;;;;;;;;7396200;19;20199;-72
2021/12/18 01:16:40;;;;;;;12.10;7.67;;;;;;;;;;7396205;19;20006;-71
2021/12/18 01:24:31;;;;;;;11.27;7.32;;;;;;;;;;7390759;19;19995;-73
2021/12/18 01:26:56;;;;;;;12.32;7.95;;;;;;;;;;7391574;19;19998;-72
2021/12/18 01:29:21;;;;;;;13.40;7.93;;;;;;;;;;7388329;19;20210;-71
2021/12/18 01:31:47;;;;;;;11.60;7.40;;;;;;;;;;7391396;19;20016;-71
2021/12/18 01:34:12;;;;;;;13.00;7.82;;;;;;;;;;7391046;19;20456;-72
2021/12/18 01:36:37;;;;;;;10.48;6.70;;;;;;;;;;7391011;19;20166;-71
2021/12/18 01:39:04;;;;;;;11.55;6.97;;;;;;;;;;7389642;19;19991;-71
2021/12/18 01:41:51;;;;;;;9.93;6.57;;;;;;;;;;7390402;19;20337;-71
2021/12/18 01:44:48;;;;;;;8.65;5.70;;;;;;;;;;7391240;19;20456;-71
2021/12/18 01:51:16;;;;;;;10.43;6.35;;;;;;;;;;7390878;19;20325;-72
2021/12/18 01:52:38;;;;;;;9.88;6.43;;;;;;;;;;7389271;19;20010;-71
2021/12/18 01:55:05;;;;;;;11.70;6.97;;;;;;;;;;7389830;19;20003;-72
2021/12/18 01:57:31;;;;;;;11.73;6.50;;;;;;;;;;7390049;19;19995;-71
2021/12/18 01:59:57;;;;;;;14.20;7.30;;;;;;;;;;7389438;19;20330;-72
2021/12/18 02:02:22;;;;;;;11.38;6.40;;;;;;;;;;7390458;19;20002;-71
2021/12/18 02:04:48;;;;;;;13.70;7.20;;;;;;;;;;7394596;19;20019;-71
2021/12/18 02:07:14;;;;;;;13.73;7.45;;;;;;;;;;7390135;19;20057;-71
2021/12/18 02:12:31;;;;;;;12.48;7.75;;;;;;;;;;7388929;19;20028;-72
2021/12/18 02:20:38;;;;;;;15.32;7.93;;;;;;;;;;7391636;19;20004;-71
2021/12/18 02:23:05;;;;;;;14.27;8.07;;;;;;;;;;7389780;19;20006;-71
2021/12/18 02:25:33;;;;;;;15.95;8.07;;;;;;;;;;7389286;19;20015;-71
2021/12/18 02:27:59;;;;;;;13.27;7.28;;;;;;;;;;7388698;19;20495;-70
2021/12/18 02:30:25;;;;;;;14.02;8.15;;;;;;;;;;7388653;19;19990;-71
2021/12/18 02:32:52;;;;;;;15.70;8.48;;;;;;;;;;7387969;19;19995;-71
2021/12/18 02:35:29;;;;;;;15.43;8.30;;;;;;;;;;7389149;19;20019;-73
2021/12/18 02:38:20;;;;;;;16.92;8.32;;;;;;;;;;7389069;19;20420;-71
2021/12/18 02:43:22;;;;;;;15.57;8.40;;;;;;;;;;7387225;19;20002;-71
2021/12/18 02:45:47;;;;;;;15.40;8.10;;;;;;;;;;7389391;19;19991;-71
2021/12/18 02:48:12;;;;;;;12.43;7.32;;;;;;;;;;7387264;19;20019;-71
2021/12/18 02:50:39;;;;;;;17.80;9.18;;;;;;;;;;7388208;19;19995;-73
2021/12/18 02:53:06;;;;;;;17.23;9.52;;;;;;;;;;7389639;19;20058;-71
2021/12/18 02:55:31;;;;;;;16.40;8.52;;;;;;;;;;7392574;19;20015;-71
2021/12/18 02:57:56;;;;;;;18.05;9.85;;;;;;;;;;7388755;19;19990;-71
2021/12/18 03:00:24;;;;;;;19.65;9.13;;;;;;;;;;7387731;19;19998;-72
2021/12/18 03:02:50;;;;;;;20.85;9.75;;;;;;;;;;7387508;19;20002;-71
2021/12/18 03:05:22;;;;;;;19.70;9.23;;;;;;;;;;7388287;19;20010;-71
2021/12/18 03:07:52;;;;;;;17.52;9.38;;;;;;;;;;7387095;19;20003;-71
2021/12/18 03:27:09;;;;;;;15.40;8.00;;;;;;;;;;7386297;19;20414;-71
2021/12/18 03:29:34;;;;;;;21.80;10.07;;;;;;;;;;7385332;19;20011;-71
2021/12/18 03:32:00;;;;;;;22.02;9.15;;;;;;;;;;7387198;19;20069;-71
2021/12/18 03:34:25;;;;;;;16.83;8.75;;;;;;;;;;7387464;19;20011;-71
2021/12/18 03:36:51;;;;;;;20.55;10.10;;;;;;;;;;7387610;19;19991;-72
2021/12/18 03:39:17;;;;;;;15.13;7.70;;;;;;;;;;7385903;19;20025;-73
2021/12/18 03:41:43;;;;;;;15.52;8.38;;;;;;;;;;7387181;19;20002;-71
2021/12/18 03:44:08;;;;;;;19.73;9.15;;;;;;;;;;7390822;19;20021;-71
2021/12/18 03:46:34;;;;;;;19.00;9.50;;;;;;;;;;7391289;19;20325;-71
2021/12/18 03:48:59;;;;;;;21.70;9.98;;;;;;;;;;7385295;19;19995;-72
2021/12/18 03:51:24;;;;;;;17.75;8.98;;;;;;;;;;7386766;19;19998;-71
2021/12/18 03:53:50;;;;;;;18.13;9.63;;;;;;;;;;7386099;19;20002;-71
2021/12/18 03:56:15;;;;;;;17.60;8.75;;;;;;;;;;7387105;19;20002;-71
2021/12/18 03:58:40;;;;;;;17.63;8.73;;;;;;;;;;7386105;19;20043;-71
2021/12/18 04:01:06;;;;;;;17.90;8.55;;;;;;;;;;7386529;19;19991;-72
2021/12/18 04:03:31;;;;;;;18.80;9.32;;;;;;;;;;7386552;19;19994;-71
2021/12/18 04:05:56;;;;;;;18.25;8.95;;;;;;;;;;7386808;19;19994;-71
2021/12/18 04:08:22;;;;;;;18.67;9.40;;;;;;;;;;7384203;19;19991;-72
2021/12/18 04:10:47;;;;;;;16.25;8.25;;;;;;;;;;7386804;19;20014;-71
2021/12/18 04:13:12;;;;;;;19.63;8.77;;;;;;;;;;7384280;19;19998;-71
2021/12/18 04:15:39;;;;;;;24.75;10.68;;;;;;;;;;7386567;19;20106;-71
2021/12/18 04:18:04;;;;;;;19.33;8.57;;;;;;;;;;7385588;19;20006;-72
2021/12/18 04:20:30;;;;;;;21.42;10.05;;;;;;;;;;7389237;19;19999;-70
2021/12/18 04:22:56;;;;;;;18.30;9.05;;;;;;;;;;7391509;19;20007;-72
2021/12/18 04:25:22;;;;;;;21.00;9.48;;;;;;;;;;7392895;19;19995;-72
2021/12/18 04:27:48;;;;;;;24.17;10.05;;;;;;;;;;7396189;19;20362;-72
2021/12/18 04:30:13;;;;;;;21.63;9.63;;;;;;;;;;7392780;19;19991;-71
2021/12/18 04:32:39;;;;;;;18.75;8.90;;;;;;;;;;7392698;19;20486;-71
2021/12/18 04:35:06;;;;;;;20.02;8.88;;;;;;;;;;7396207;19;19995;-73
2021/12/18 04:37:31;;;;;;;18.08;8.23;;;;;;;;;;7393235;19;19999;-72
2021/12/18 04:39:56;;;;;;;20.90;8.85;;;;;;;;;;7391250;19;20488;-73
2021/12/18 04:42:21;;;;;;;17.42;8.35;;;;;;;;;;7391589;19;20002;-71
2021/12/18 04:44:47;;;;;;;15.30;7.70;;;;;;;;;;7392410;19;20463;-72
2021/12/18 04:47:12;;;;;;;19.13;8.80;;;;;;;;;;7392558;19;20332;-71
2021/12/18 04:49:38;;;;;;;14.50;7.20;;;;;;;;;;7387904;19;20014;-71
2021/12/18 04:52:04;;;;;;;14.43;7.80;;;;;;;;;;7391053;19;20338;-71
2021/12/18 04:54:29;;;;;;;16.58;7.50;;;;;;;;;;7391633;19;19998;-72
2021/12/18 04:56:54;;;;;;;14.10;7.07;;;;;;;;;;7392625;19;19994;-71
2021/12/18 04:59:19;;;;;;;20.92;9.07;;;;;;;;;;7391651;19;20007;-71
2021/12/18 05:01:45;;;;;;;14.38;6.50;;;;;;;;;;7391486;19;20133;-72
2021/12/18 05:04:12;;;;;;;17.25;7.97;;;;;;;;;;7392275;19;20006;-71
2021/12/18 05:06:41;;;;;;;14.70;8.05;;;;;;;;;;7392377;19;19998;-72
2021/12/18 05:09:06;;;;;;;17.98;8.88;;;;;;;;;;7389178;19;20318;-72
2021/12/18 05:11:32;;;;;;;18.13;9.05;;;;;;;;;;7391435;19;20093;-72
2021/12/18 05:13:57;;;;;;;15.40;7.82;;;;;;;;;;7391976;19;20420;-73
2021/12/18 05:16:23;;;;;;;15.25;7.60;;;;;;;;;;7391822;19;20006;-71
2021/12/18 05:18:48;;;;;;;11.50;6.72;;;;;;;;;;7390416;19;20028;-71
2021/12/18 05:21:16;;;;;;;16.50;7.40;;;;;;;;;;7388917;19;20034;-70
2021/12/18 05:23:41;;;;;;;16.83;8.10;;;;;;;;;;7394719;19;20007;-73
2021/12/18 05:26:07;;;;;;;13.90;6.63;;;;;;;;;;7395051;19;19995;-71
2021/12/18 05:28:32;;;;;;;13.60;6.90;;;;;;;;;;7389510;19;20037;-71
2021/12/18 05:30:57;;;;;;;13.30;6.90;;;;;;;;;;7389789;19;20416;-71
2021/12/18 05:33:23;;;;;;;12.40;6.35;;;;;;;;;;7389509;19;20489;-71
2021/12/18 05:35:48;;;;;;;12.38;6.10;;;;;;;;;;7390870;19;20453;-72
2021/12/18 05:38:13;;;;;;;12.27;6.53;;;;;;;;;;7389567;19;20011;-71
2021/12/18 05:40:39;;;;;;;15.65;7.15;;;;;;;;;;7391246;19;20003;-72
2021/12/18 05:43:06;;;;;;;11.70;5.78;;;;;;;;;;7389011;19;20378;-71
2021/12/18 05:45:31;;;;;;;12.80;6.95;;;;;;;;;;7390969;19;20469;-71
2021/12/18 05:47:57;;;;;;;17.35;8.35;;;;;;;;;;7390042;19;20006;-72
2021/12/18 05:50:27;;;;;;;17.77;8.90;;;;;;;;;;7389605;19;19999;-73
2021/12/18 05:52:54;;;;;;;10.90;5.88;;;;;;;;;;7388963;19;20363;-72
2021/12/18 05:55:22;;;;;;;12.20;6.07;;;;;;;;;;7390517;19;20002;-71
2021/12/18 05:57:47;;;;;;;14.35;6.68;;;;;;;;;;7390282;19;20006;-71
2021/12/18 06:00:14;;;;;;;10.13;5.75;;;;;;;;;;7389162;19;19999;-72
2021/12/18 06:02:39;;;;;;;11.52;6.45;;;;;;;;;;7388799;19;20009;-72
2021/12/18 06:05:07;;;;;;;12.15;6.22;;;;;;;;;;7390279;19;20006;-72
2021/12/18 06:07:43;;;;;;;8.95;5.53;;;;;;;;;;7390232;19;19994;-73
2021/12/18 06:10:08;;;;;;;10.38;5.38;;;;;;;;;;7386722;19;20297;-71
2021/12/18 06:12:33;;;;;;;11.25;6.13;;;;;;;;;;7391053;19;20010;-71
2021/12/18 06:14:59;;;;;;;11.98;6.65;;;;;;;;;;7392309;19;20022;-73
2021/12/18 06:17:24;;;;;;;11.70;6.45;;;;;;;;;;7389660;19;19995;-72
2021/12/18 06:19:49;;;;;;;11.95;6.53;;;;;;;;;;7388354;19;20062;-71
2021/12/18 06:22:15;;;;;;;12.82;6.40;;;;;;;;;;7388343;19;20481;-71
2021/12/18 06:24:41;;;;;;;14.10;7.05;;;;;;;;;;7388905;19;20546;-71
2021/12/18 06:27:06;;;;;;;10.98;6.05;;;;;;;;;;7389317;19;20341;-71
2021/12/18 06:29:34;;;;;;;10.35;5.65;;;;;;;;;;7391203;19;20020;-71
2021/12/18 06:32:01;;;;;;;8.40;4.85;;;;;;;;;;7388454;19;20496;-72
2021/12/18 06:34:26;;;;;;;9.75;5.35;;;;;;;;;;7388993;19;20002;-71
2021/12/18 06:36:51;;;;;;;12.85;5.45;;;;;;;;;;7388984;19;19991;-72
2021/12/18 06:39:16;;;;;;;10.98;6.18;;;;;;;;;;7387845;19;19999;-71
2021/12/18 06:41:42;;;;;;;8.90;5.40;;;;;;;;;;7388053;19;20413;-72
2021/12/18 06:44:08;;;;;;;9.45;5.43;;;;;;;;;;7386658;19;20002;-71
2021/12/18 06:46:33;;;;;;;8.75;5.03;;;;;;;;;;7389320;19;20086;-72
2021/12/18 06:48:58;;;;;;;10.63;5.75;;;;;;;;;;7386957;19;20430;-71
2021/12/18 06:51:24;;;;;;;9.18;5.10;;;;;;;;;;7388257;19;20021;-72
2021/12/18 06:53:51;;;;;;;10.23;5.85;;;;;;;;;;7387714;19;19999;-72
2021/12/18 06:56:16;;;;;;;10.63;5.65;;;;;;;;;;7388471;19;20006;-71
2021/12/18 06:58:42;;;;;;;9.63;5.32;;;;;;;;;;7387072;19;20006;-71
2021/12/18 07:01:07;;;;;;;9.13;5.30;;;;;;;;;;7388332;19;19998;-71
2021/12/18 07:03:34;;;;;;;11.40;5.47;;;;;;;;;;7391839;19;20338;-71
2021/12/18 07:05:59;;;;;;;11.75;5.90;;;;;;;;;;7388608;19;19995;-71
2021/12/18 07:08:25;;;;;;;10.30;5.88;;;;;;;;;;7386779;19;20388;-71
2021/12/18 07:10:50;;;;;;;10.05;6.03;;;;;;;;;;7388196;19;19999;-72
2021/12/18 07:13:15;;;;;;;11.95;5.72;;;;;;;;;;7386064;19;20305;-71
2021/12/18 07:15:42;;;;;;;12.63;6.10;;;;;;;;;;7388533;19;20471;-71
2021/12/18 07:18:07;;;;;;;20.20;9.60;;;;;;;;;;7387986;19;20095;-71
2021/12/18 07:20:32;;;;;;;12.07;7.13;;;;;;;;;;7387864;19;20327;-71
2021/12/18 07:22:58;;;;;;;16.77;8.85;;;;;;;;;;7385918;19;20024;-71
2021/12/18 07:25:23;;;;;;;15.05;8.20;;;;;;;;;;7388070;19;19994;-71
2021/12/18 07:27:49;;;;;;;10.15;6.97;;;;;;;;;;7387998;19;20003;-72
2021/12/18 07:30:15;;;;;;;13.20;7.43;;;;;;;;;;7386810;19;20001;-72
2021/12/18 07:32:42;;;;;;;13.98;8.10;;;;;;;;;;7386145;19;20111;-72
2021/12/18 07:35:08;;;;;;;13.00;7.35;;;;;;;;;;7387164;19;19995;-71
2021/12/18 07:37:34;;;;;;;12.90;7.53;;;;;;;;;;7387195;19;20947;-72
2021/12/18 07:40:00;;;;;;;13.55;7.88;;;;;;;;;;7385622;19;20472;-72
2021/12/18 07:42:26;;;;;;;13.93;8.57;;;;;;;;;;7386032;19;19999;-72
2021/12/18 07:44:51;;;;;;;13.13;8.40;;;;;;;;;;7387850;19;20480;-72
2021/12/18 07:47:18;;;;;;;14.95;8.48;;;;;;;;;;7387055;19;20441;-72
2021/12/18 07:49:44;;;;;;;23.52;12.18;;;;;;;;;;7382945;19;19999;-74
2021/12/18 07:52:09;;;;;;;26.48;11.98;;;;;;;;;;7388854;19;20011;-73
2021/12/18 07:54:35;;;;;;;15.93;8.45;;;;;;;;;;7393997;19;20002;-72
2021/12/18 07:57:00;;;;;;;12.10;6.75;;;;;;;;;;7394342;19;20010;-71
2021/12/18 07:59:26;;;;;;;13.73;7.88;;;;;;;;;;7393783;19;20005;-71
2021/12/18 08:01:51;;;;;;;20.23;8.45;;;;;;;;;;7393695;19;20402;-71
2021/12/18 08:04:16;;;;;;;12.98;6.90;;;;;;;;;;7394695;19;20066;-71
2021/12/18 08:06:42;;;;;;;16.05;7.35;;;;;;;;;;7394352;19;20481;-72
2021/12/18 08:09:07;;;;;;;11.90;6.28;;;;;;;;;;7391600;19;20018;-71
2021/12/18 08:11:32;;;;;;;10.82;6.57;;;;;;;;;;7393881;19;19999;-71
2021/12/18 08:13:57;;;;;;;13.75;7.00;;;;;;;;;;7394195;19;20468;-72
2021/12/18 08:16:23;;;;;;;13.75;7.45;;;;;;;;;;7393970;19;20015;-71
2021/12/18 08:18:48;;;;;;;13.40;6.35;;;;;;;;;;7393395;19;20449;-72
2021/12/18 08:21:14;;;;;;;11.70;6.78;;;;;;;;;;7393475;19;20023;-72
2021/12/18 08:23:39;;;;;;;11.48;6.72;;;;;;;;;;7395856;19;20306;-71
2021/12/18 08:26:05;;;;;;;14.70;7.55;;;;;;;;;;7393841;19;20019;-72
2021/12/18 08:28:30;;;;;;;13.35;7.47;;;;;;;;;;7391577;19;20005;-73
2021/12/18 08:30:55;;;;;;;15.57;7.22;;;;;;;;;;7393322;19;20070;-72
2021/12/18 08:33:21;;;;;;;11.20;6.82;;;;;;;;;;7390178;19;20337;-73
2021/12/18 08:35:46;;;;;;;13.15;7.60;;;;;;;;;;7394034;19;20011;-74
2021/12/18 08:38:12;;;;;;;12.60;7.03;;;;;;;;;;7391498;19;20347;-72
2021/12/18 08:40:37;;;;;;;11.07;7.05;;;;;;;;;;7392732;19;19994;-72
2021/12/18 08:43:02;;;;;;;21.60;7.80;;;;;;;;;;7393456;19;20072;-73
2021/12/18 08:45:29;;;;;;;14.88;7.10;;;;;;;;;;7396780;19;20006;-72
2021/12/18 08:47:55;;;;;;;11.05;6.53;;;;;;;;;;7393567;19;20006;-72
2021/12/18 08:50:21;;;;;;;10.25;5.95;;;;;;;;;;7391610;19;20005;-73
2021/12/18 08:52:48;;;;;;;11.90;6.40;;;;;;;;;;7390936;19;20318;-72
2021/12/18 08:55:15;;;;;;;14.35;8.13;;;;;;;;;;7391820;19;20070;-73
2021/12/18 08:57:41;;;;;;;13.18;6.78;;;;;;;;;;7392597;19;20098;-73
2021/12/18 09:00:09;;;;;;;9.20;5.40;;;;;;;;;;7391674;19;20346;-72
2021/12/18 09:02:36;;;;;;;11.82;6.72;;;;;;;;;;7390423;19;20002;-69
2021/12/18 09:05:02;;;;;;;16.42;8.00;;;;;;;;;;7391255;19;20016;-73
2021/12/18 09:07:27;;;;;;;13.57;6.03;;;;;;;;;;7391203;19;20003;-73
2021/12/18 09:09:53;;;;;;;10.45;6.20;;;;;;;;;;7387899;19;19994;-72
2021/12/18 09:12:19;;;;;;;9.85;6.07;;;;;;;;;;7390813;19;20544;-72
2021/12/18 09:14:44;;;;;;;11.10;6.22;;;;;;;;;;7392768;19;19999;-72
2021/12/18 09:17:10;;;;;;;10.27;6.30;;;;;;;;;;7391729;19;20002;-73
2021/12/18 09:19:35;;;;;;;10.55;5.93;;;;;;;;;;7390837;19;19999;-73
2021/12/18 09:22:01;;;;;;;13.23;6.93;;;;;;;;;;7390553;19;20002;-73
2021/12/18 09:24:27;;;;;;;10.82;6.32;;;;;;;;;;7391955;19;20460;-71
2021/12/18 09:26:52;;;;;;;9.13;5.75;;;;;;;;;;7392002;19;19991;-71
2021/12/18 09:29:19;;;;;;;9.98;5.78;;;;;;;;;;7389237;19;20027;-72
2021/12/18 09:31:44;;;;;;;10.30;6.15;;;;;;;;;;7392554;19;20002;-71
2021/12/18 09:34:09;;;;;;;9.15;5.72;;;;;;;;;;7394465;19;20010;-70
2021/12/18 09:36:35;;;;;;;9.60;5.55;;;;;;;;;;7391024;19;20002;-71
2021/12/18 09:39:00;;;;;;;9.73;5.97;;;;;;;;;;7389386;19;19999;-71
2021/12/18 09:41:26;;;;;;;11.88;6.88;;;;;;;;;;7390707;19;20074;-70
2021/12/18 09:43:51;;;;;;;10.90;6.57;;;;;;;;;;7390570;19;20017;-70
2021/12/18 09:46:17;;;;;;;10.45;6.03;;;;;;;;;;7390868;19;20015;-71
2021/12/18 09:48:43;;;;;;;9.45;5.85;;;;;;;;;;7388555;19;20085;-70
2021/12/18 09:51:18;;;;;;;11.13;6.47;;;;;;;;;;7390184;19;20038;-70
2021/12/18 09:53:43;;;;;;;9.85;6.15;;;;;;;;;;7389521;19;20009;-70
2021/12/18 09:56:09;;;;;;;9.05;5.57;;;;;;;;;;7390306;19;20058;-70
2021/12/18 09:58:34;;;;;;;10.38;6.05;;;;;;;;;;7388944;19;20016;-70
2021/12/18 10:00:59;;;;;;;9.93;6.30;;;;;;;;;;7390188;19;20008;-70
2021/12/18 10:03:48;;;;;;;9.75;6.47;;;;;;;;;;7390383;19;19999;-70
2021/12/18 10:06:41;;;;;;;10.55;6.05;;;;;;;;;;7390336;19;19999;-70
2021/12/18 10:09:12;;;;;;;9.50;5.85;;;;;;;;;;7387172;19;20003;-71
2021/12/18 10:12:14;;;;;;;10.25;5.65;;;;;;;;;;7389597;19;20321;-70
2021/12/18 10:14:56;;;;;;;11.38;6.18;;;;;;;;;;7390526;19;20002;-71
2021/12/18 10:17:25;;;;;;;9.23;5.88;;;;;;;;;;7389835;19;20311;-70
2021/12/18 10:19:55;;;;;;;9.05;5.97;;;;;;;;;;7388878;19;20034;-72
2021/12/18 10:22:20;;;;;;;11.68;5.88;;;;;;;;;;7391866;19;20094;-70
2021/12/18 10:25:02;;;;;;;11.77;5.95;;;;;;;;;;7393013;19;19998;-71
2021/12/18 10:27:28;;;;;;;10.05;6.18;;;;;;;;;;7390156;19;20006;-70
2021/12/18 10:30:06;;;;;;;9.73;5.63;;;;;;;;;;7388775;19;20476;-70
2021/12/18 10:32:32;;;;;;;15.43;7.93;;;;;;;;;;7388555;19;20491;-70
2021/12/18 10:34:58;;;;;;;13.15;6.95;;;;;;;;;;7389055;19;19999;-71
2021/12/18 10:37:28;;;;;;;11.30;6.40;;;;;;;;;;7388927;19;20034;-70
2021/12/18 10:39:53;;;;;;;11.68;6.38;;;;;;;;;;7387807;19;20002;-70
2021/12/18 10:42:42;;;;;;;9.60;6.28;;;;;;;;;;7389018;19;20005;-70
2021/12/18 10:45:22;;;;;;;11.73;6.47;;;;;;;;;;7388883;19;20003;-71
2021/12/18 10:47:55;;;;;;;9.45;5.30;;;;;;;;;;7389640;19;20009;-70
2021/12/18 10:50:24;;;;;;;10.38;6.53;;;;;;;;;;7387985;19;20456;-71
2021/12/18 10:52:53;;;;;;;11.85;7.38;;;;;;;;;;7387466;19;20007;-71
2021/12/18 10:55:18;;;;;;;12.00;6.13;;;;;;;;;;7387939;19;20005;-70
2021/12/18 10:57:53;;;;;;;10.23;6.63;;;;;;;;;;7388888;19;20058;-70
2021/12/18 11:00:31;;;;;;;13.10;7.43;;;;;;;;;;7387699;19;20300;-70
2021/12/18 11:02:56;;;;;;;10.05;6.65;;;;;;;;;;7386983;19;20007;-70
2021/12/18 11:05:22;;;;;;;11.02;6.80;;;;;;;;;;7388382;19;20023;-72
2021/12/18 11:08:07;;;;;;;12.10;6.60;;;;;;;;;;7388389;19;20005;-70
2021/12/18 11:16:00;;;;;;;12.98;7.22;;;;;;;;;;7392863;19;20079;-72
2021/12/18 11:18:27;;;;;;;11.73;5.97;;;;;;;;;;7385401;19;20002;-70
2021/12/18 11:20:53;;;;;;;9.57;6.15;;;;;;;;;;7388210;19;20353;-72
2021/12/18 11:23:26;;;;;;;11.40;5.93;;;;;;;;;;7385552;19;20477;-71
2021/12/18 11:25:52;;;;;;;10.73;6.60;;;;;;;;;;7388363;19;20378;-72
2021/12/18 11:28:19;;;;;;;12.63;7.13;;;;;;;;;;7386203;19;20027;-72
2021/12/18 11:30:45;;;;;;;36.72;16.95;;;;;;;;;;7388678;19;20009;-73
2021/12/18 11:33:10;;;;;;;17.00;8.50;;;;;;;;;;7387209;19;20495;-71
2021/12/18 11:35:36;;;;;;;13.30;8.23;;;;;;;;;;7388627;19;20026;-73
2021/12/18 11:38:07;;;;;;;11.80;7.13;;;;;;;;;;7387178;19;20058;-70
2021/12/18 11:40:36;;;;;;;12.32;6.97;;;;;;;;;;7387306;19;20436;-72
2021/12/18 11:43:08;;;;;;;12.45;6.57;;;;;;;;;;7385688;19;20002;-71
2021/12/18 11:45:36;;;;;;;12.43;6.40;;;;;;;;;;7387348;19;20462;-70
2021/12/18 11:48:04;;;;;;;11.90;7.20;;;;;;;;;;7386844;19;19998;-70
2021/12/18 11:50:32;;;;;;;10.38;6.82;;;;;;;;;;7387196;19;20009;-71
2021/12/18 11:53:00;;;;;;;11.30;6.20;;;;;;;;;;7385587;19;20006;-71
2021/12/18 11:55:35;;;;;;;11.35;6.60;;;;;;;;;;7386840;19;20003;-71
2021/12/18 11:58:03;;;;;;;10.57;6.72;;;;;;;;;;7387246;19;19999;-70
2021/12/18 12:00:33;;;;;;;10.50;6.20;;;;;;;;;;7386656;19;20347;-70
2021/12/18 12:03:00;;;;;;;17.88;6.65;;;;;;;;;;7389123;19;20043;-70
2021/12/18 12:05:44;;;;;;;11.20;6.70;;;;;;;;;;7391628;19;20008;-72
2021/12/18 12:08:34;;;;;;;18.35;10.02;;;;;;;;;;7384905;19;20003;-72
2021/12/18 12:11:15;;;;;;;14.27;6.75;;;;;;;;;;7386522;19;19995;-70
2021/12/18 12:14:07;;;;;;;11.35;6.28;;;;;;;;;;7386494;19;20015;-70
2021/12/18 12:16:44;;;;;;;10.73;7.00;;;;;;;;;;7386496;19;20002;-71
2021/12/18 12:19:12;;;;;;;12.90;6.88;;;;;;;;;;7385524;19;20473;-71
2021/12/18 12:21:42;;;;;;;12.18;7.28;;;;;;;;;;7388237;19;20501;-70
2021/12/18 12:24:08;;;;;;;13.48;7.25;;;;;;;;;;7385779;19;20320;-70
2021/12/18 12:26:35;;;;;;;12.75;7.43;;;;;;;;;;7386562;19;19998;-70
2021/12/18 12:29:00;;;;;;;11.45;6.70;;;;;;;;;;7384861;19;20002;-72
2021/12/18 12:31:27;;;;;;;13.15;6.68;;;;;;;;;;7385794;19;20003;-71
2021/12/18 12:34:20;;;;;;;11.68;7.65;;;;;;;;;;7386178;19;20559;-70
2021/12/18 12:36:46;;;;;;;10.95;7.03;;;;;;;;;;7386314;19;19999;-73
2021/12/18 12:39:15;;;;;;;13.98;7.00;;;;;;;;;;7384729;19;20028;-71
2021/12/18 12:41:48;;;;;;;10.98;6.82;;;;;;;;;;7388951;19;20342;-70
2021/12/18 12:44:24;;;;;;;16.83;7.35;;;;;;;;;;7391356;19;20422;-70
2021/12/18 12:47:16;;;;;;;12.15;7.40;;;;;;;;;;7393342;19;20058;-70
2021/12/18 12:49:43;;;;;;;10.25;6.55;;;;;;;;;;7388469;19;20464;-70
2021/12/18 12:52:16;;;;;;;11.70;6.60;;;;;;;;;;7393990;19;20100;-70
2021/12/18 12:55:07;;;;;;;10.18;7.00;;;;;;;;;;7396271;19;20023;-70
2021/12/18 12:57:33;;;;;;;14.50;7.07;;;;;;;;;;7392814;19;20397;-72
2021/12/18 12:59:58;;;;;;;10.02;6.45;;;;;;;;;;7391676;19;20077;-72
2021/12/18 13:02:29;;;;;;;8.68;6.00;;;;;;;;;;7390860;19;20002;-69
2021/12/18 13:05:08;;;;;;;11.73;6.15;;;;;;;;;;7392423;19;19999;-71
2021/12/18 13:07:34;;;;;;;16.02;8.43;;;;;;;;;;7392242;19;20003;-71
2021/12/18 13:09:59;;;;;;;10.02;5.82;;;;;;;;;;7388398;19;19995;-71
2021/12/18 13:12:25;;;;;;;12.55;6.78;;;;;;;;;;7391094;19;20006;-70
2021/12/18 13:14:52;;;;;;;10.35;5.82;;;;;;;;;;7392290;19;20216;-70
2021/12/18 13:17:25;;;;;;;10.10;6.28;;;;;;;;;;7392056;19;20015;-71
2021/12/18 13:19:58;;;;;;;12.63;6.70;;;;;;;;;;7390899;19;19999;-73
2021/12/18 13:22:30;;;;;;;9.63;6.22;;;;;;;;;;7390510;19;20006;-70
2021/12/18 13:25:15;;;;;;;10.75;5.78;;;;;;;;;;7390974;19;20003;-71
2021/12/18 13:27:43;;;;;;;10.20;6.30;;;;;;;;;;7392079;19;20058;-71
2021/12/18 13:30:20;;;;;;;11.55;6.20;;;;;;;;;;7388454;19;20003;-70
2021/12/18 13:33:00;;;;;;;9.93;5.72;;;;;;;;;;7390050;19;20058;-70
2021/12/18 13:35:29;;;;;;;9.77;6.68;;;;;;;;;;7391656;19;20006;-71
2021/12/18 13:38:11;;;;;;;11.90;6.65;;;;;;;;;;7391271;19;20007;-70
2021/12/18 13:40:43;;;;;;;12.38;6.72;;;;;;;;;;7390935;19;19999;-70
2021/12/18 13:43:17;;;;;;;8.45;5.78;;;;;;;;;;7393709;19;20499;-71
2021/12/18 13:46:01;;;;;;;11.10;6.38;;;;;;;;;;7396201;19;20330;-70
2021/12/18 13:48:36;;;;;;;11.98;7.00;;;;;;;;;;7389830;19;20338;-70
2021/12/18 13:51:14;;;;;;;11.10;6.63;;;;;;;;;;7390851;19;20093;-71
2021/12/18 13:53:57;;;;;;;16.88;8.90;;;;;;;;;;7389924;19;19998;-70
2021/12/18 13:56:25;;;;;;;10.50;6.53;;;;;;;;;;7391244;19;20378;-71
2021/12/18 13:58:51;;;;;;;9.73;5.97;;;;;;;;;;7389715;19;20002;-70
2021/12/18 14:01:27;;;;;;;9.73;6.32;;;;;;;;;;7390226;19;19999;-72
2021/12/18 14:03:58;;;;;;;12.85;7.15;;;;;;;;;;7390624;19;20171;-71
2021/12/18 14:06:43;;;;;;;11.35;6.75;;;;;;;;;;7390743;19;20010;-70
2021/12/18 14:09:14;;;;;;;13.40;7.22;;;;;;;;;;7387666;19;20029;-71
2021/12/18 14:11:43;;;;;;;8.95;5.93;;;;;;;;;;7389798;19;19999;-70
2021/12/18 14:14:11;;;;;;;9.70;6.30;;;;;;;;;;7390089;19;20048;-71
2021/12/18 14:16:47;;;;;;;9.68;6.55;;;;;;;;;;7390626;19;20008;-71
2021/12/18 14:19:12;;;;;;;12.60;7.45;;;;;;;;;;7389400;19;19998;-70
2021/12/18 14:21:45;;;;;;;12.40;6.72;;;;;;;;;;7389502;19;19999;-70
2021/12/18 14:24:16;;;;;;;15.15;7.78;;;;;;;;;;7389141;19;20045;-70
2021/12/18 14:27:02;;;;;;;12.98;7.00;;;;;;;;;;7389458;19;20002;-70
2021/12/18 14:29:35;;;;;;;10.90;7.13;;;;;;;;;;7388945;19;19997;-70
2021/12/18 14:32:05;;;;;;;13.95;8.15;;;;;;;;;;7390716;19;20003;-71
2021/12/18 14:34:34;;;;;;;13.45;7.13;;;;;;;;;;7393565;19;19995;-70
2021/12/18 14:37:11;;;;;;;11.65;7.03;;;;;;;;;;7389068;19;20055;-70
2021/12/18 14:39:45;;;;;;;16.00;7.00;;;;;;;;;;7387508;19;20003;-70
2021/12/18 14:42:42;;;;;;;11.15;7.07;;;;;;;;;;7388595;19;20058;-70
2021/12/18 14:45:10;;;;;;;11.23;6.88;;;;;;;;;;7388940;19;20016;-71
2021/12/18 14:47:41;;;;;;;11.25;6.72;;;;;;;;;;7389066;19;20011;-70
2021/12/18 14:50:13;;;;;;;12.38;7.30;;;;;;;;;;7386554;19;20460;-70
2021/12/18 14:53:13;;;;;;;12.02;6.72;;;;;;;;;;7387367;19;20314;-70
2021/12/18 14:55:44;;;;;;;11.52;6.93;;;;;;;;;;7387665;19;20009;-70
2021/12/18 14:58:51;;;;;;;11.50;6.82;;;;;;;;;;7388065;19;20007;-70
2021/12/18 15:01:23;;;;;;;12.40;6.60;;;;;;;;;;7387306;19;20420;-71
2021/12/18 15:03:48;;;;;;;12.18;6.80;;;;;;;;;;7386316;19;19998;-71
2021/12/18 15:06:34;;;;;;;12.07;6.63;;;;;;;;;;7388442;19;20368;-71
2021/12/18 15:09:12;;;;;;;12.05;6.80;;;;;;;;;;7386235;19;20520;-71
2021/12/18 15:11:40;;;;;;;12.55;7.45;;;;;;;;;;7388133;19;20007;-70
2021/12/18 15:14:20;;;;;;;11.18;6.45;;;;;;;;;;7388079;19;20066;-70
2021/12/18 15:16:55;;;;;;;11.73;7.15;;;;;;;;;;7388196;19;19998;-70
2021/12/18 15:19:34;;;;;;;13.38;7.28;;;;;;;;;;7386813;19;19999;-71
2021/12/18 15:22:06;;;;;;;11.55;6.05;;;;;;;;;;7390138;19;20012;-71
2021/12/18 15:24:34;;;;;;;13.95;7.40;;;;;;;;;;7392014;19;20031;-71
2021/12/18 15:27:02;;;;;;;14.20;7.70;;;;;;;;;;7387617;19;19998;-70